sensor_id;sensor_type;location;lat;lon;timestamp;P1;durP1;ratioP1;P2;durP2;ratioP2
22780;SDS011;11557;50.884;4.322;2023-04-26T00:00:21;13.00;;;5.05;;
22780;SDS011;11557;50.884;4.322;2023-04-26T00:02:47;7.40;;;4.07;;
22780;SDS011;11557;50.884;4.322;2023-04-26T00:05:13;8.38;;;4.75;;
22780;SDS011;11557;50.884;4.322;2023-04-26T00:07:40;8.77;;;4.63;;
22780;SDS011;11557;50.884;4.322;2023-04-26T00:10:07;9.85;;;4.57;;
22780;SDS011;11557;50.884;4.322;2023-04-26T00:12:34;13.73;;;4.75;;
22780;SDS011;11557;50.884;4.322;2023-04-26T00:15:01;11.38;;;4.97;;
22780;SDS011;11557;50.884;4.322;2023-04-26T00:17:30;10.07;;;5.82;;
22780;SDS011;11557;50.884;4.322;2023-04-26T00:19:56;15.00;;;5.82;;
22780;SDS011;11557;50.884;4.322;2023-04-26T00:22:22;11.77;;;5.38;;
22780;SDS011;11557;50.884;4.322;2023-04-26T00:24:48;15.70;;;5.18;;
22780;SDS011;11557;50.884;4.322;2023-04-26T00:27:15;11.55;;;5.65;;
22780;SDS011;11557;50.884;4.322;2023-04-26T00:29:41;14.15;;;5.90;;
22780;SDS011;11557;50.884;4.322;2023-04-26T00:32:06;14.00;;;5.80;;
22780;SDS011;11557;50.884;4.322;2023-04-26T00:34:32;12.32;;;5.88;;
22780;SDS011;11557;50.884;4.322;2023-04-26T00:37:02;12.90;;;5.13;;
22780;SDS011;11557;50.884;4.322;2023-04-26T00:39:28;7.97;;;5.07;;
22780;SDS011;11557;50.884;4.322;2023-04-26T00:41:55;9.05;;;4.53;;
22780;SDS011;11557;50.884;4.322;2023-04-26T00:44:21;12.57;;;5.35;;
22780;SDS011;11557;50.884;4.322;2023-04-26T00:46:47;10.73;;;5.38;;
22780;SDS011;11557;50.884;4.322;2023-04-26T00:49:16;12.45;;;5.65;;
22780;SDS011;11557;50.884;4.322;2023-04-26T00:51:44;11.65;;;5.75;;
22780;SDS011;11557;50.884;4.322;2023-04-26T00:54:14;13.40;;;5.80;;
22780;SDS011;11557;50.884;4.322;2023-04-26T00:56:40;9.82;;;5.45;;
22780;SDS011;11557;50.884;4.322;2023-04-26T00:59:07;10.40;;;5.10;;
22780;SDS011;11557;50.884;4.322;2023-04-26T01:01:33;21.63;;;5.95;;
22780;SDS011;11557;50.884;4.322;2023-04-26T01:03:59;13.65;;;5.78;;
22780;SDS011;11557;50.884;4.322;2023-04-26T01:06:27;9.05;;;5.38;;
22780;SDS011;11557;50.884;4.322;2023-04-26T01:08:58;11.05;;;6.00;;
22780;SDS011;11557;50.884;4.322;2023-04-26T01:11:30;11.10;;;5.45;;
22780;SDS011;11557;50.884;4.322;2023-04-26T01:13:56;8.90;;;5.35;;
22780;SDS011;11557;50.884;4.322;2023-04-26T01:16:23;10.85;;;6.03;;
22780;SDS011;11557;50.884;4.322;2023-04-26T01:18:52;9.73;;;5.28;;
22780;SDS011;11557;50.884;4.322;2023-04-26T01:21:19;13.18;;;5.68;;
22780;SDS011;11557;50.884;4.322;2023-04-26T01:23:46;8.57;;;5.30;;
22780;SDS011;11557;50.884;4.322;2023-04-26T01:26:12;11.07;;;6.00;;
22780;SDS011;11557;50.884;4.322;2023-04-26T01:28:38;10.30;;;5.35;;
22780;SDS011;11557;50.884;4.322;2023-04-26T01:31:05;8.80;;;5.68;;
22780;SDS011;11557;50.884;4.322;2023-04-26T01:33:31;8.45;;;5.10;;
22780;SDS011;11557;50.884;4.322;2023-04-26T01:35:56;10.63;;;5.47;;
22780;SDS011;11557;50.884;4.322;2023-04-26T01:38:22;11.10;;;5.20;;
22780;SDS011;11557;50.884;4.322;2023-04-26T01:40:48;10.43;;;5.03;;
22780;SDS011;11557;50.884;4.322;2023-04-26T01:43:14;10.88;;;5.32;;
22780;SDS011;11557;50.884;4.322;2023-04-26T01:45:45;11.25;;;5.60;;
22780;SDS011;11557;50.884;4.322;2023-04-26T01:48:12;12.02;;;6.28;;
22780;SDS011;11557;50.884;4.322;2023-04-26T01:50:37;12.25;;;6.18;;
22780;SDS011;11557;50.884;4.322;2023-04-26T01:53:03;8.77;;;6.03;;
22780;SDS011;11557;50.884;4.322;2023-04-26T01:55:29;8.98;;;5.45;;
22780;SDS011;11557;50.884;4.322;2023-04-26T01:57:54;9.90;;;5.70;;
22780;SDS011;11557;50.884;4.322;2023-04-26T02:00:20;11.65;;;6.22;;
22780;SDS011;11557;50.884;4.322;2023-04-26T02:02:46;18.30;;;6.10;;
22780;SDS011;11557;50.884;4.322;2023-04-26T02:05:12;9.07;;;5.45;;
22780;SDS011;11557;50.884;4.322;2023-04-26T02:07:37;10.50;;;6.05;;
22780;SDS011;11557;50.884;4.322;2023-04-26T02:10:03;10.35;;;6.05;;
22780;SDS011;11557;50.884;4.322;2023-04-26T02:12:30;12.15;;;6.20;;
22780;SDS011;11557;50.884;4.322;2023-04-26T02:14:56;10.82;;;5.65;;
22780;SDS011;11557;50.884;4.322;2023-04-26T02:17:22;14.50;;;6.32;;
22780;SDS011;11557;50.884;4.322;2023-04-26T02:19:50;15.27;;;6.50;;
22780;SDS011;11557;50.884;4.322;2023-04-26T02:22:16;10.95;;;5.70;;
22780;SDS011;11557;50.884;4.322;2023-04-26T02:24:42;11.77;;;6.13;;
22780;SDS011;11557;50.884;4.322;2023-04-26T02:27:07;12.13;;;6.28;;
22780;SDS011;11557;50.884;4.322;2023-04-26T02:29:33;10.77;;;5.72;;
22780;SDS011;11557;50.884;4.322;2023-04-26T02:32:01;12.63;;;6.13;;
22780;SDS011;11557;50.884;4.322;2023-04-26T02:34:26;11.60;;;6.00;;
22780;SDS011;11557;50.884;4.322;2023-04-26T02:36:53;10.00;;;5.90;;
22780;SDS011;11557;50.884;4.322;2023-04-26T02:39:19;12.02;;;6.07;;
22780;SDS011;11557;50.884;4.322;2023-04-26T02:41:45;9.40;;;5.72;;
22780;SDS011;11557;50.884;4.322;2023-04-26T02:44:11;8.32;;;5.65;;
22780;SDS011;11557;50.884;4.322;2023-04-26T02:46:36;9.38;;;5.55;;
22780;SDS011;11557;50.884;4.322;2023-04-26T02:49:02;8.15;;;5.70;;
22780;SDS011;11557;50.884;4.322;2023-04-26T02:51:28;11.38;;;6.10;;
22780;SDS011;11557;50.884;4.322;2023-04-26T02:53:54;11.60;;;6.45;;
22780;SDS011;11557;50.884;4.322;2023-04-26T02:56:20;11.45;;;6.15;;
22780;SDS011;11557;50.884;4.322;2023-04-26T02:58:46;13.65;;;6.20;;
22780;SDS011;11557;50.884;4.322;2023-04-26T03:01:11;13.55;;;6.75;;
22780;SDS011;11557;50.884;4.322;2023-04-26T03:03:38;11.70;;;6.15;;
22780;SDS011;11557;50.884;4.322;2023-04-26T03:06:04;13.23;;;6.30;;
22780;SDS011;11557;50.884;4.322;2023-04-26T03:08:30;12.45;;;6.57;;
22780;SDS011;11557;50.884;4.322;2023-04-26T03:10:59;15.77;;;6.72;;
22780;SDS011;11557;50.884;4.322;2023-04-26T03:13:25;9.45;;;6.28;;
22780;SDS011;11557;50.884;4.322;2023-04-26T03:15:51;12.85;;;6.32;;
22780;SDS011;11557;50.884;4.322;2023-04-26T03:18:17;12.35;;;6.22;;
22780;SDS011;11557;50.884;4.322;2023-04-26T03:20:44;12.98;;;5.82;;
22780;SDS011;11557;50.884;4.322;2023-04-26T03:23:10;15.13;;;6.95;;
22780;SDS011;11557;50.884;4.322;2023-04-26T03:25:36;10.35;;;6.45;;
22780;SDS011;11557;50.884;4.322;2023-04-26T03:28:01;12.05;;;6.60;;
22780;SDS011;11557;50.884;4.322;2023-04-26T03:30:28;13.98;;;6.85;;
22780;SDS011;11557;50.884;4.322;2023-04-26T03:32:54;10.10;;;6.72;;
22780;SDS011;11557;50.884;4.322;2023-04-26T03:35:21;14.02;;;6.90;;
22780;SDS011;11557;50.884;4.322;2023-04-26T03:37:47;10.13;;;6.78;;
22780;SDS011;11557;50.884;4.322;2023-04-26T03:40:13;18.50;;;7.65;;
22780;SDS011;11557;50.884;4.322;2023-04-26T03:42:41;14.63;;;6.45;;
22780;SDS011;11557;50.884;4.322;2023-04-26T03:45:06;10.70;;;6.65;;
22780;SDS011;11557;50.884;4.322;2023-04-26T03:47:32;9.38;;;6.65;;
22780;SDS011;11557;50.884;4.322;2023-04-26T03:49:58;12.30;;;6.47;;
22780;SDS011;11557;50.884;4.322;2023-04-26T03:52:25;17.98;;;7.63;;
22780;SDS011;11557;50.884;4.322;2023-04-26T03:54:51;11.85;;;7.40;;
22780;SDS011;11557;50.884;4.322;2023-04-26T03:57:16;11.40;;;6.50;;
22780;SDS011;11557;50.884;4.322;2023-04-26T03:59:42;14.43;;;6.80;;
22780;SDS011;11557;50.884;4.322;2023-04-26T04:02:08;12.63;;;6.35;;
22780;SDS011;11557;50.884;4.322;2023-04-26T04:04:33;14.80;;;6.40;;
22780;SDS011;11557;50.884;4.322;2023-04-26T04:06:59;15.43;;;6.90;;
22780;SDS011;11557;50.884;4.322;2023-04-26T04:09:25;10.15;;;6.60;;
22780;SDS011;11557;50.884;4.322;2023-04-26T04:11:51;12.32;;;7.07;;
22780;SDS011;11557;50.884;4.322;2023-04-26T04:14:16;10.23;;;7.30;;
22780;SDS011;11557;50.884;4.322;2023-04-26T04:16:42;10.60;;;6.75;;
22780;SDS011;11557;50.884;4.322;2023-04-26T04:19:08;10.60;;;7.43;;
22780;SDS011;11557;50.884;4.322;2023-04-26T04:21:34;12.73;;;7.10;;
22780;SDS011;11557;50.884;4.322;2023-04-26T04:23:59;11.45;;;7.00;;
22780;SDS011;11557;50.884;4.322;2023-04-26T04:26:25;11.85;;;6.90;;
22780;SDS011;11557;50.884;4.322;2023-04-26T04:28:54;12.63;;;6.72;;
22780;SDS011;11557;50.884;4.322;2023-04-26T04:31:20;13.25;;;6.97;;
22780;SDS011;11557;50.884;4.322;2023-04-26T04:33:46;18.00;;;6.68;;
22780;SDS011;11557;50.884;4.322;2023-04-26T04:36:13;12.50;;;7.50;;
22780;SDS011;11557;50.884;4.322;2023-04-26T04:38:40;13.00;;;7.38;;
22780;SDS011;11557;50.884;4.322;2023-04-26T04:41:06;13.85;;;7.60;;
22780;SDS011;11557;50.884;4.322;2023-04-26T04:43:32;21.77;;;8.05;;
22780;SDS011;11557;50.884;4.322;2023-04-26T04:45:58;15.70;;;7.32;;
22780;SDS011;11557;50.884;4.322;2023-04-26T04:48:24;12.93;;;7.20;;
22780;SDS011;11557;50.884;4.322;2023-04-26T04:50:50;13.88;;;7.22;;
22780;SDS011;11557;50.884;4.322;2023-04-26T04:53:15;16.83;;;7.05;;
22780;SDS011;11557;50.884;4.322;2023-04-26T04:55:41;13.82;;;7.57;;
22780;SDS011;11557;50.884;4.322;2023-04-26T04:58:08;17.25;;;7.25;;
22780;SDS011;11557;50.884;4.322;2023-04-26T05:00:34;17.73;;;7.85;;
22780;SDS011;11557;50.884;4.322;2023-04-26T05:03:02;15.90;;;7.80;;
22780;SDS011;11557;50.884;4.322;2023-04-26T05:05:28;16.52;;;8.73;;
22780;SDS011;11557;50.884;4.322;2023-04-26T05:07:55;18.40;;;8.27;;
22780;SDS011;11557;50.884;4.322;2023-04-26T05:10:21;20.05;;;8.90;;
22780;SDS011;11557;50.884;4.322;2023-04-26T05:12:46;13.85;;;8.95;;
22780;SDS011;11557;50.884;4.322;2023-04-26T05:15:12;24.30;;;9.27;;
22780;SDS011;11557;50.884;4.322;2023-04-26T05:17:38;21.15;;;9.80;;
22780;SDS011;11557;50.884;4.322;2023-04-26T05:20:03;16.88;;;8.88;;
22780;SDS011;11557;50.884;4.322;2023-04-26T05:22:31;18.55;;;9.27;;
22780;SDS011;11557;50.884;4.322;2023-04-26T05:24:59;20.38;;;9.55;;
22780;SDS011;11557;50.884;4.322;2023-04-26T05:27:26;24.65;;;9.77;;
22780;SDS011;11557;50.884;4.322;2023-04-26T05:29:52;19.92;;;10.25;;
22780;SDS011;11557;50.884;4.322;2023-04-26T05:32:18;24.75;;;10.02;;
22780;SDS011;11557;50.884;4.322;2023-04-26T05:34:44;24.10;;;10.18;;
22780;SDS011;11557;50.884;4.322;2023-04-26T05:37:09;17.55;;;9.32;;
22780;SDS011;11557;50.884;4.322;2023-04-26T05:39:35;26.73;;;8.98;;
22780;SDS011;11557;50.884;4.322;2023-04-26T05:42:01;18.55;;;8.63;;
22780;SDS011;11557;50.884;4.322;2023-04-26T05:44:27;16.38;;;8.73;;
22780;SDS011;11557;50.884;4.322;2023-04-26T05:46:53;19.65;;;9.40;;
22780;SDS011;11557;50.884;4.322;2023-04-26T05:49:19;19.23;;;9.60;;
22780;SDS011;11557;50.884;4.322;2023-04-26T05:51:44;21.05;;;9.27;;
22780;SDS011;11557;50.884;4.322;2023-04-26T05:54:10;17.42;;;8.63;;
22780;SDS011;11557;50.884;4.322;2023-04-26T05:56:36;17.25;;;8.43;;
22780;SDS011;11557;50.884;4.322;2023-04-26T05:59:01;21.30;;;8.63;;
22780;SDS011;11557;50.884;4.322;2023-04-26T06:01:27;14.77;;;8.45;;
22780;SDS011;11557;50.884;4.322;2023-04-26T06:03:52;20.88;;;9.18;;
22780;SDS011;11557;50.884;4.322;2023-04-26T06:06:18;13.13;;;8.15;;
22780;SDS011;11557;50.884;4.322;2023-04-26T06:08:44;20.85;;;8.25;;
22780;SDS011;11557;50.884;4.322;2023-04-26T06:11:10;21.73;;;9.00;;
22780;SDS011;11557;50.884;4.322;2023-04-26T06:13:36;13.55;;;8.55;;
22780;SDS011;11557;50.884;4.322;2023-04-26T06:16:01;15.60;;;8.45;;
22780;SDS011;11557;50.884;4.322;2023-04-26T06:18:27;20.25;;;8.55;;
22780;SDS011;11557;50.884;4.322;2023-04-26T06:20:53;20.27;;;8.52;;
22780;SDS011;11557;50.884;4.322;2023-04-26T06:23:18;17.30;;;8.68;;
22780;SDS011;11557;50.884;4.322;2023-04-26T06:25:44;21.23;;;8.88;;
22780;SDS011;11557;50.884;4.322;2023-04-26T06:28:10;18.40;;;9.50;;
22780;SDS011;11557;50.884;4.322;2023-04-26T06:30:37;22.23;;;8.77;;
22780;SDS011;11557;50.884;4.322;2023-04-26T06:33:02;21.13;;;10.23;;
22780;SDS011;11557;50.884;4.322;2023-04-26T06:35:28;24.08;;;9.93;;
22780;SDS011;11557;50.884;4.322;2023-04-26T06:37:54;22.75;;;10.18;;
22780;SDS011;11557;50.884;4.322;2023-04-26T06:40:20;19.88;;;10.38;;
22780;SDS011;11557;50.884;4.322;2023-04-26T06:42:46;25.35;;;10.68;;
22780;SDS011;11557;50.884;4.322;2023-04-26T06:45:11;18.67;;;10.20;;
22780;SDS011;11557;50.884;4.322;2023-04-26T06:47:38;21.98;;;10.55;;
22780;SDS011;11557;50.884;4.322;2023-04-26T06:50:03;23.05;;;11.38;;
22780;SDS011;11557;50.884;4.322;2023-04-26T06:52:29;18.00;;;10.45;;
22780;SDS011;11557;50.884;4.322;2023-04-26T06:54:55;20.75;;;10.48;;
22780;SDS011;11557;50.884;4.322;2023-04-26T06:57:21;22.02;;;10.48;;
22780;SDS011;11557;50.884;4.322;2023-04-26T06:59:47;21.00;;;10.88;;
22780;SDS011;11557;50.884;4.322;2023-04-26T07:02:12;20.90;;;10.27;;
22780;SDS011;11557;50.884;4.322;2023-04-26T07:04:38;21.35;;;9.93;;
22780;SDS011;11557;50.884;4.322;2023-04-26T07:07:04;24.90;;;10.85;;
22780;SDS011;11557;50.884;4.322;2023-04-26T07:09:29;22.15;;;10.98;;
22780;SDS011;11557;50.884;4.322;2023-04-26T07:11:55;18.75;;;9.85;;
22780;SDS011;11557;50.884;4.322;2023-04-26T07:14:22;22.05;;;10.05;;
22780;SDS011;11557;50.884;4.322;2023-04-26T07:16:48;20.23;;;10.73;;
22780;SDS011;11557;50.884;4.322;2023-04-26T07:19:13;28.38;;;11.10;;
22780;SDS011;11557;50.884;4.322;2023-04-26T07:21:39;20.73;;;10.68;;
22780;SDS011;11557;50.884;4.322;2023-04-26T07:24:05;21.15;;;10.20;;
22780;SDS011;11557;50.884;4.322;2023-04-26T07:26:32;22.20;;;10.52;;
22780;SDS011;11557;50.884;4.322;2023-04-26T07:29:00;25.67;;;9.88;;
22780;SDS011;11557;50.884;4.322;2023-04-26T07:31:26;23.13;;;9.52;;
22780;SDS011;11557;50.884;4.322;2023-04-26T07:33:52;17.35;;;9.07;;
22780;SDS011;11557;50.884;4.322;2023-04-26T07:36:18;16.60;;;8.40;;
22780;SDS011;11557;50.884;4.322;2023-04-26T07:38:43;16.48;;;8.43;;
22780;SDS011;11557;50.884;4.322;2023-04-26T07:41:09;22.95;;;9.43;;
22780;SDS011;11557;50.884;4.322;2023-04-26T07:43:36;18.40;;;9.95;;
22780;SDS011;11557;50.884;4.322;2023-04-26T07:46:02;18.70;;;9.93;;
22780;SDS011;11557;50.884;4.322;2023-04-26T07:48:28;23.58;;;11.65;;
22780;SDS011;11557;50.884;4.322;2023-04-26T07:50:53;19.70;;;9.63;;
22780;SDS011;11557;50.884;4.322;2023-04-26T07:53:19;24.45;;;10.27;;
22780;SDS011;11557;50.884;4.322;2023-04-26T07:55:46;13.48;;;8.48;;
22780;SDS011;11557;50.884;4.322;2023-04-26T07:58:11;21.35;;;9.30;;
22780;SDS011;11557;50.884;4.322;2023-04-26T08:00:38;17.67;;;7.65;;
22780;SDS011;11557;50.884;4.322;2023-04-26T08:03:05;20.90;;;9.98;;
22780;SDS011;11557;50.884;4.322;2023-04-26T08:05:31;20.65;;;10.98;;
22780;SDS011;11557;50.884;4.322;2023-04-26T08:07:56;20.23;;;10.32;;
22780;SDS011;11557;50.884;4.322;2023-04-26T08:10:22;20.90;;;10.88;;
22780;SDS011;11557;50.884;4.322;2023-04-26T08:12:48;18.85;;;11.63;;
22780;SDS011;11557;50.884;4.322;2023-04-26T08:15:14;17.63;;;10.27;;
22780;SDS011;11557;50.884;4.322;2023-04-26T08:17:40;17.60;;;9.63;;
22780;SDS011;11557;50.884;4.322;2023-04-26T08:20:06;13.70;;;8.75;;
22780;SDS011;11557;50.884;4.322;2023-04-26T08:22:33;17.30;;;7.72;;
22780;SDS011;11557;50.884;4.322;2023-04-26T08:24:59;11.18;;;5.88;;
22780;SDS011;11557;50.884;4.322;2023-04-26T08:27:24;12.18;;;6.32;;
22780;SDS011;11557;50.884;4.322;2023-04-26T08:29:50;14.07;;;6.32;;
22780;SDS011;11557;50.884;4.322;2023-04-26T08:32:19;16.05;;;5.93;;
22780;SDS011;11557;50.884;4.322;2023-04-26T08:34:45;12.75;;;5.90;;
22780;SDS011;11557;50.884;4.322;2023-04-26T08:37:11;16.15;;;5.95;;
22780;SDS011;11557;50.884;4.322;2023-04-26T08:39:37;12.27;;;6.10;;
22780;SDS011;11557;50.884;4.322;2023-04-26T08:42:12;8.70;;;5.22;;
22780;SDS011;11557;50.884;4.322;2023-04-26T08:44:40;11.43;;;5.55;;
22780;SDS011;11557;50.884;4.322;2023-04-26T08:50:03;9.25;;;5.40;;
22780;SDS011;11557;50.884;4.322;2023-04-26T08:52:30;10.80;;;5.10;;
22780;SDS011;11557;50.884;4.322;2023-04-26T08:54:57;13.75;;;5.25;;
22780;SDS011;11557;50.884;4.322;2023-04-26T08:57:23;13.05;;;5.30;;
22780;SDS011;11557;50.884;4.322;2023-04-26T08:59:50;12.43;;;5.70;;
22780;SDS011;11557;50.884;4.322;2023-04-26T09:02:18;13.48;;;5.47;;
22780;SDS011;11557;50.884;4.322;2023-04-26T09:04:45;13.23;;;5.85;;
22780;SDS011;11557;50.884;4.322;2023-04-26T09:07:13;12.90;;;4.80;;
22780;SDS011;11557;50.884;4.322;2023-04-26T09:09:44;12.48;;;5.18;;
22780;SDS011;11557;50.884;4.322;2023-04-26T09:12:14;11.18;;;5.10;;
22780;SDS011;11557;50.884;4.322;2023-04-26T09:14:44;13.20;;;5.50;;
22780;SDS011;11557;50.884;4.322;2023-04-26T09:17:31;11.48;;;5.65;;
22780;SDS011;11557;50.884;4.322;2023-04-26T09:19:57;16.77;;;5.80;;
22780;SDS011;11557;50.884;4.322;2023-04-26T09:22:27;9.98;;;5.78;;
22780;SDS011;11557;50.884;4.322;2023-04-26T09:24:52;14.20;;;5.57;;
22780;SDS011;11557;50.884;4.322;2023-04-26T09:27:18;11.35;;;5.18;;
22780;SDS011;11557;50.884;4.322;2023-04-26T09:29:56;16.58;;;5.45;;
22780;SDS011;11557;50.884;4.322;2023-04-26T09:32:21;8.63;;;4.80;;
22780;SDS011;11557;50.884;4.322;2023-04-26T09:34:48;11.23;;;5.78;;
22780;SDS011;11557;50.884;4.322;2023-04-26T09:37:17;12.27;;;5.47;;
22780;SDS011;11557;50.884;4.322;2023-04-26T09:39:43;12.27;;;5.53;;
22780;SDS011;11557;50.884;4.322;2023-04-26T09:42:09;9.48;;;5.13;;
22780;SDS011;11557;50.884;4.322;2023-04-26T09:44:35;12.32;;;5.90;;
22780;SDS011;11557;50.884;4.322;2023-04-26T09:47:02;10.15;;;5.80;;
22780;SDS011;11557;50.884;4.322;2023-04-26T09:49:42;14.75;;;6.15;;
22780;SDS011;11557;50.884;4.322;2023-04-26T09:52:14;10.40;;;5.03;;
22780;SDS011;11557;50.884;4.322;2023-04-26T09:54:41;12.70;;;4.88;;
22780;SDS011;11557;50.884;4.322;2023-04-26T09:57:09;11.77;;;5.35;;
22780;SDS011;11557;50.884;4.322;2023-04-26T09:59:48;11.52;;;5.90;;
22780;SDS011;11557;50.884;4.322;2023-04-26T10:04:46;12.07;;;6.80;;
22780;SDS011;11557;50.884;4.322;2023-04-26T10:07:14;11.73;;;5.95;;
22780;SDS011;11557;50.884;4.322;2023-04-26T10:09:42;15.95;;;6.82;;
22780;SDS011;11557;50.884;4.322;2023-04-26T10:12:09;10.63;;;5.75;;
22780;SDS011;11557;50.884;4.322;2023-04-26T10:14:35;14.27;;;6.53;;
22780;SDS011;11557;50.884;4.322;2023-04-26T10:17:04;12.38;;;6.00;;
22780;SDS011;11557;50.884;4.322;2023-04-26T10:19:34;15.38;;;7.93;;
22780;SDS011;11557;50.884;4.322;2023-04-26T10:22:03;12.60;;;6.30;;
22780;SDS011;11557;50.884;4.322;2023-04-26T10:24:33;13.85;;;5.20;;
22780;SDS011;11557;50.884;4.322;2023-04-26T10:27:00;10.50;;;5.25;;
22780;SDS011;11557;50.884;4.322;2023-04-26T10:30:11;13.30;;;6.00;;
22780;SDS011;11557;50.884;4.322;2023-04-26T10:32:21;10.35;;;5.57;;
22780;SDS011;11557;50.884;4.322;2023-04-26T10:40:26;18.73;;;8.95;;
22780;SDS011;11557;50.884;4.322;2023-04-26T10:45:40;15.63;;;9.38;;
22780;SDS011;11557;50.884;4.322;2023-04-26T10:48:17;16.55;;;9.80;;
22780;SDS011;11557;50.884;4.322;2023-04-26T10:59:06;16.13;;;9.07;;
22780;SDS011;11557;50.884;4.322;2023-04-26T11:01:33;16.48;;;8.43;;
22780;SDS011;11557;50.884;4.322;2023-04-26T11:06:25;14.30;;;7.30;;
22780;SDS011;11557;50.884;4.322;2023-04-26T11:08:51;10.60;;;7.38;;
22780;SDS011;11557;50.884;4.322;2023-04-26T11:11:18;16.77;;;7.75;;
22780;SDS011;11557;50.884;4.322;2023-04-26T11:13:46;12.80;;;7.35;;
22780;SDS011;11557;50.884;4.322;2023-04-26T11:16:13;10.93;;;6.68;;
22780;SDS011;11557;50.884;4.322;2023-04-26T11:18:40;13.27;;;7.43;;
22780;SDS011;11557;50.884;4.322;2023-04-26T11:21:07;12.80;;;7.70;;
22780;SDS011;11557;50.884;4.322;2023-04-26T11:23:33;13.52;;;6.93;;
22780;SDS011;11557;50.884;4.322;2023-04-26T11:26:07;11.18;;;7.05;;
22780;SDS011;11557;50.884;4.322;2023-04-26T11:28:34;11.50;;;6.75;;
22780;SDS011;11557;50.884;4.322;2023-04-26T11:31:04;13.43;;;6.93;;
22780;SDS011;11557;50.884;4.322;2023-04-26T11:33:31;14.10;;;6.30;;
22780;SDS011;11557;50.884;4.322;2023-04-26T11:36:00;11.35;;;6.13;;
22780;SDS011;11557;50.884;4.322;2023-04-26T11:38:26;11.18;;;6.53;;
22780;SDS011;11557;50.884;4.322;2023-04-26T11:40:59;8.55;;;5.70;;
22780;SDS011;11557;50.884;4.322;2023-04-26T11:43:35;11.35;;;6.63;;
22780;SDS011;11557;50.884;4.322;2023-04-26T11:46:02;12.85;;;6.53;;
22780;SDS011;11557;50.884;4.322;2023-04-26T11:48:28;10.55;;;6.18;;
22780;SDS011;11557;50.884;4.322;2023-04-26T11:50:58;11.23;;;6.72;;
22780;SDS011;11557;50.884;4.322;2023-04-26T11:53:27;14.23;;;6.82;;
22780;SDS011;11557;50.884;4.322;2023-04-26T11:56:04;11.32;;;6.90;;
22780;SDS011;11557;50.884;4.322;2023-04-26T11:58:51;13.82;;;7.30;;
22780;SDS011;11557;50.884;4.322;2023-04-26T12:03:49;14.88;;;6.88;;
22780;SDS011;11557;50.884;4.322;2023-04-26T12:06:15;14.48;;;7.57;;
22780;SDS011;11557;50.884;4.322;2023-04-26T12:08:41;14.45;;;6.80;;
22780;SDS011;11557;50.884;4.322;2023-04-26T12:11:13;11.00;;;6.88;;
22780;SDS011;11557;50.884;4.322;2023-04-26T12:13:41;11.10;;;6.85;;
22780;SDS011;11557;50.884;4.322;2023-04-26T12:16:07;13.85;;;7.20;;
22780;SDS011;11557;50.884;4.322;2023-04-26T12:18:33;14.68;;;6.38;;
22780;SDS011;11557;50.884;4.322;2023-04-26T12:20:59;12.80;;;6.60;;
22780;SDS011;11557;50.884;4.322;2023-04-26T12:23:25;13.95;;;6.90;;
22780;SDS011;11557;50.884;4.322;2023-04-26T12:25:53;11.43;;;6.82;;
22780;SDS011;11557;50.884;4.322;2023-04-26T12:28:24;10.63;;;6.65;;
22780;SDS011;11557;50.884;4.322;2023-04-26T12:30:50;16.83;;;6.70;;
22780;SDS011;11557;50.884;4.322;2023-04-26T12:33:16;16.52;;;6.40;;
22780;SDS011;11557;50.884;4.322;2023-04-26T12:35:46;12.82;;;5.72;;
22780;SDS011;11557;50.884;4.322;2023-04-26T12:38:14;11.65;;;5.32;;
22780;SDS011;11557;50.884;4.322;2023-04-26T12:40:40;12.00;;;6.68;;
22780;SDS011;11557;50.884;4.322;2023-04-26T12:43:06;11.98;;;5.90;;
22780;SDS011;11557;50.884;4.322;2023-04-26T12:45:32;10.93;;;6.70;;
22780;SDS011;11557;50.884;4.322;2023-04-26T12:47:58;9.50;;;5.97;;
22780;SDS011;11557;50.884;4.322;2023-04-26T12:50:23;9.90;;;6.55;;
22780;SDS011;11557;50.884;4.322;2023-04-26T12:52:50;12.57;;;6.38;;
22780;SDS011;11557;50.884;4.322;2023-04-26T12:55:15;15.90;;;6.95;;
22780;SDS011;11557;50.884;4.322;2023-04-26T12:57:42;18.70;;;6.97;;
22780;SDS011;11557;50.884;4.322;2023-04-26T13:00:09;13.70;;;7.85;;
22780;SDS011;11557;50.884;4.322;2023-04-26T13:02:37;13.25;;;6.95;;
22780;SDS011;11557;50.884;4.322;2023-04-26T13:05:03;9.93;;;6.85;;
22780;SDS011;11557;50.884;4.322;2023-04-26T13:07:33;11.75;;;7.82;;
22780;SDS011;11557;50.884;4.322;2023-04-26T13:10:01;13.57;;;7.38;;
22780;SDS011;11557;50.884;4.322;2023-04-26T13:12:27;10.00;;;6.65;;
22780;SDS011;11557;50.884;4.322;2023-04-26T13:14:54;12.52;;;6.70;;
22780;SDS011;11557;50.884;4.322;2023-04-26T13:17:20;18.25;;;6.70;;
22780;SDS011;11557;50.884;4.322;2023-04-26T13:19:47;17.63;;;7.30;;
22780;SDS011;11557;50.884;4.322;2023-04-26T13:22:13;12.43;;;6.75;;
22780;SDS011;11557;50.884;4.322;2023-04-26T13:24:39;12.18;;;5.97;;
22780;SDS011;11557;50.884;4.322;2023-04-26T13:27:05;13.05;;;6.85;;
22780;SDS011;11557;50.884;4.322;2023-04-26T13:29:31;11.85;;;5.82;;
22780;SDS011;11557;50.884;4.322;2023-04-26T13:31:57;11.57;;;6.47;;
22780;SDS011;11557;50.884;4.322;2023-04-26T13:34:23;13.60;;;7.20;;
22780;SDS011;11557;50.884;4.322;2023-04-26T13:36:50;14.30;;;6.15;;
22780;SDS011;11557;50.884;4.322;2023-04-26T13:39:17;14.27;;;6.88;;
22780;SDS011;11557;50.884;4.322;2023-04-26T13:41:43;12.18;;;6.55;;
22780;SDS011;11557;50.884;4.322;2023-04-26T13:44:09;15.52;;;7.38;;
22780;SDS011;11557;50.884;4.322;2023-04-26T13:46:35;11.77;;;6.25;;
22780;SDS011;11557;50.884;4.322;2023-04-26T13:49:00;10.32;;;5.40;;
22780;SDS011;11557;50.884;4.322;2023-04-26T13:51:26;10.10;;;5.68;;
22780;SDS011;11557;50.884;4.322;2023-04-26T13:53:54;14.50;;;5.20;;
22780;SDS011;11557;50.884;4.322;2023-04-26T13:56:20;12.63;;;5.47;;
22780;SDS011;11557;50.884;4.322;2023-04-26T13:58:46;7.32;;;5.10;;
22780;SDS011;11557;50.884;4.322;2023-04-26T14:01:12;13.27;;;5.45;;
22780;SDS011;11557;50.884;4.322;2023-04-26T14:03:38;12.43;;;6.05;;
22780;SDS011;11557;50.884;4.322;2023-04-26T14:06:05;9.82;;;5.28;;
22780;SDS011;11557;50.884;4.322;2023-04-26T14:08:31;13.73;;;6.75;;
22780;SDS011;11557;50.884;4.322;2023-04-26T14:10:57;14.23;;;6.15;;
22780;SDS011;11557;50.884;4.322;2023-04-26T14:13:22;11.23;;;6.68;;
22780;SDS011;11557;50.884;4.322;2023-04-26T14:15:48;10.88;;;5.97;;
22780;SDS011;11557;50.884;4.322;2023-04-26T14:18:14;13.80;;;7.18;;
22780;SDS011;11557;50.884;4.322;2023-04-26T14:20:40;11.90;;;6.22;;
22780;SDS011;11557;50.884;4.322;2023-04-26T14:23:06;12.50;;;5.72;;
22780;SDS011;11557;50.884;4.322;2023-04-26T14:25:32;12.32;;;5.72;;
22780;SDS011;11557;50.884;4.322;2023-04-26T14:27:57;9.75;;;5.78;;
22780;SDS011;11557;50.884;4.322;2023-04-26T14:30:23;12.57;;;6.32;;
22780;SDS011;11557;50.884;4.322;2023-04-26T14:32:49;13.88;;;5.93;;
22780;SDS011;11557;50.884;4.322;2023-04-26T14:35:16;16.13;;;6.50;;
22780;SDS011;11557;50.884;4.322;2023-04-26T14:37:41;17.33;;;6.68;;
22780;SDS011;11557;50.884;4.322;2023-04-26T14:40:07;15.25;;;6.22;;
22780;SDS011;11557;50.884;4.322;2023-04-26T14:42:35;10.48;;;6.10;;
22780;SDS011;11557;50.884;4.322;2023-04-26T14:45:01;13.38;;;7.10;;
22780;SDS011;11557;50.884;4.322;2023-04-26T14:47:27;14.10;;;6.68;;
22780;SDS011;11557;50.884;4.322;2023-04-26T14:49:53;15.45;;;6.82;;
22780;SDS011;11557;50.884;4.322;2023-04-26T14:52:18;11.98;;;5.93;;
22780;SDS011;11557;50.884;4.322;2023-04-26T14:54:45;10.85;;;6.05;;
22780;SDS011;11557;50.884;4.322;2023-04-26T14:57:10;13.10;;;6.40;;
22780;SDS011;11557;50.884;4.322;2023-04-26T14:59:36;15.85;;;7.03;;